Time;durP1;ratioP1;P1;durP2;ratioP2;P2;SDS_P1;SDS_P2;PMS_P1;PMS_P2;Temp;Humidity;BMP_temperature;BMP_pressure;BME280_temperature;BME280_humidity;BME280_pressure;Samples;Min_cycle;Max_cycle;Signal;HPM_P1;HPM_P2
2022/06/21 00:01:00;;;;;;;3.35;2.90;;;;;;;26.50;40.66;101818.16;4216797;28;20040;-72
2022/06/21 00:03:08;;;;;;;3.10;2.80;;;;;;;26.49;40.95;101810.06;4217239;28;20040;-69
2022/06/21 00:05:18;;;;;;;3.22;2.92;;;;;;;26.50;41.01;101811.72;4199778;28;20044;-72
2022/06/21 00:07:26;;;;;;;2.65;2.45;;;;;;;26.49;41.11;101808.06;4200126;28;20426;-73
2022/06/21 00:09:33;;;;;;;2.78;2.58;;;;;;;26.49;40.89;101813.69;4199639;28;20040;-73
2022/06/21 00:11:34;;;;;;;3.88;2.75;;;;;;;26.51;41.08;101819.00;4199833;28;20036;-73
2022/06/21 00:13:36;;;;;;;3.40;2.95;;;;;;;26.44;41.01;101798.88;4200195;28;20044;-73
2022/06/21 00:15:41;;;;;;;3.45;3.15;;;;;;;26.41;40.85;101791.84;4200164;28;20094;-73
2022/06/21 00:17:47;;;;;;;3.15;2.58;;;;;;;26.50;41.02;101812.53;4199420;28;20040;-72
2022/06/21 00:19:51;;;;;;;2.58;2.38;;;;;;;26.50;41.18;101817.31;4199888;28;20480;-73
2022/06/21 00:21:52;;;;;;;2.92;2.63;;;;;;;26.48;41.15;101819.56;4199682;28;20085;-73
2022/06/21 00:23:55;;;;;;;3.42;2.70;;;;;;;26.50;40.83;101822.94;4199498;28;20033;-72
2022/06/21 00:25:59;;;;;;;3.13;2.80;;;;;;;26.50;41.02;101832.19;4199755;28;20045;-72
2022/06/21 00:28:03;;;;;;;3.05;2.75;;;;;;;26.50;40.94;101828.56;4199619;28;20493;-71
2022/06/21 00:30:05;;;;;;;3.23;2.90;;;;;;;26.49;40.74;101824.91;4199806;28;20082;-72
2022/06/21 00:32:31;;;;;;;3.15;2.85;;;;;;;26.50;41.03;101842.59;4199420;28;20297;-72
2022/06/21 00:34:42;;;;;;;3.53;3.22;;;;;;;26.44;40.90;101824.16;4199082;28;20045;-73
2022/06/21 00:36:45;;;;;;;3.17;2.88;;;;;;;26.45;40.92;101820.19;4202850;28;20093;-72
2022/06/21 00:38:46;;;;;;;4.47;2.70;;;;;;;26.53;40.83;101827.97;4215893;28;20093;-73
2022/06/21 00:40:47;;;;;;;4.20;2.80;;;;;;;26.52;41.20;101812.25;4216190;28;20061;-73
2022/06/21 00:43:07;;;;;;;3.53;2.70;;;;;;;26.52;40.98;101803.81;4215035;28;20487;-73
2022/06/21 00:45:27;;;;;;;3.95;2.80;;;;;;;26.45;40.96;101789.31;4216294;28;20077;-73
2022/06/21 00:47:34;;;;;;;3.22;2.92;;;;;;;26.49;41.14;101798.81;4215855;28;20040;-72
2022/06/21 00:49:43;;;;;;;3.20;2.90;;;;;;;26.52;41.07;101812.25;4216008;28;20044;-73
2022/06/21 00:51:44;;;;;;;2.88;2.60;;;;;;;26.53;41.14;101813.94;4215598;28;20044;-73
2022/06/21 00:54:01;;;;;;;3.53;2.88;;;;;;;26.50;40.86;101818.16;4214875;28;20054;-73
2022/06/21 00:56:22;;;;;;;3.22;2.92;;;;;;;26.53;41.25;101825.16;4216432;28;20105;-72
2022/06/21 00:58:30;;;;;;;3.10;2.78;;;;;;;26.53;41.00;101830.78;4216144;28;20077;-72
2022/06/21 01:01:16;;;;;;;3.17;2.72;;;;;;;26.50;41.13;101822.94;4215873;28;20040;-73
2022/06/21 01:03:21;;;;;;;2.95;2.67;;;;;;;26.53;40.93;101831.59;4215718;28;20024;-73
2022/06/21 01:05:25;;;;;;;3.03;2.72;;;;;;;26.53;40.99;101831.59;4215443;28;20040;-73
2022/06/21 01:07:27;;;;;;;3.35;2.80;;;;;;;26.52;41.07;101837.50;4215742;28;20101;-73
2022/06/21 01:09:59;;;;;;;4.82;3.28;;;;;;;26.51;41.03;101835.84;4214580;28;20048;-73
2022/06/21 01:12:13;;;;;;;2.75;2.50;;;;;;;26.53;41.19;101842.84;4215817;28;20093;-73
2022/06/21 01:14:26;;;;;;;2.83;2.53;;;;;;;26.44;41.08;101818.53;4215943;28;20093;-73
2022/06/21 01:16:30;;;;;;;4.47;3.30;;;;;;;26.53;41.30;101836.38;4215642;28;20032;-72
2022/06/21 01:18:36;;;;;;;3.30;3.00;;;;;;;26.53;41.19;101828.81;4215410;28;20089;-72
2022/06/21 01:20:43;;;;;;;3.08;2.78;;;;;;;26.52;41.36;101831.88;4215371;28;20124;-72
2022/06/21 01:23:20;;;;;;;2.85;2.55;;;;;;;26.51;41.08;101836.66;4215910;28;20040;-73
2022/06/21 01:25:24;;;;;;;2.83;2.55;;;;;;;26.53;41.13;101844.81;4215833;28;20048;-73
2022/06/21 01:27:26;;;;;;;3.47;2.75;;;;;;;26.52;41.35;101837.50;4214500;28;20040;-73
2022/06/21 01:29:35;;;;;;;2.90;2.60;;;;;;;26.53;41.29;101850.44;4216303;28;20101;-73
2022/06/21 01:31:40;;;;;;;2.65;2.45;;;;;;;26.54;41.40;101854.91;4216141;28;20040;-72
2022/06/21 01:33:45;;;;;;;3.08;2.70;;;;;;;26.53;41.04;101851.25;4215434;28;20039;-73
2022/06/21 01:35:56;;;;;;;3.00;2.70;;;;;;;26.50;41.20;101835.00;4216777;28;20036;-73
2022/06/21 01:38:02;;;;;;;2.92;2.63;;;;;;;26.53;41.31;101839.19;4217385;28;20040;-72
2022/06/21 01:40:11;;;;;;;3.10;2.78;;;;;;;26.52;41.42;101831.88;4231868;28;20027;-72
2022/06/21 01:42:19;;;;;;;3.17;2.88;;;;;;;26.53;41.00;101844.81;4232923;28;20036;-72
2022/06/21 01:44:35;;;;;;;3.00;2.70;;;;;;;26.52;41.12;101854.34;4216311;28;20051;-72
2022/06/21 01:46:42;;;;;;;3.30;2.95;;;;;;;26.53;41.02;101861.66;4213356;28;20033;-73
2022/06/21 01:48:51;;;;;;;3.17;2.63;;;;;;;26.44;41.26;101846.59;4217427;28;20074;-72
2022/06/21 01:51:03;;;;;;;2.88;2.63;;;;;;;26.53;41.26;101861.66;4218331;28;20037;-74
2022/06/21 01:53:07;;;;;;;3.35;2.72;;;;;;;26.53;41.44;101872.88;4210199;28;20036;-72
2022/06/21 01:55:16;;;;;;;4.50;2.67;;;;;;;26.53;41.16;101872.88;4215647;28;20046;-72
2022/06/21 01:57:18;;;;;;;2.80;2.60;;;;;;;26.52;41.37;101874.00;4215812;28;20032;-72
2022/06/21 01:59:28;;;;;;;2.95;2.72;;;;;;;26.53;41.36;101878.50;4217198;28;20074;-73
2022/06/21 02:02:08;;;;;;;2.53;2.33;;;;;;;26.51;41.38;101886.34;4217647;28;20037;-72
2022/06/21 02:04:10;;;;;;;3.03;2.72;;;;;;;26.51;41.06;101884.38;4185220;28;20041;-71
2022/06/21 02:06:14;;;;;;;3.47;2.92;;;;;;;26.54;41.41;101888.56;4203221;28;20036;-72
2022/06/21 02:08:25;;;;;;;3.17;2.80;;;;;;;26.49;41.36;101889.47;4202211;28;20474;-72
2022/06/21 02:10:38;;;;;;;3.20;2.90;;;;;;;26.53;41.20;101889.72;4201647;28;20041;-72
2022/06/21 02:12:48;;;;;;;4.00;3.17;;;;;;;26.46;41.34;101883.59;4198857;28;20541;-73
2022/06/21 02:14:55;;;;;;;3.08;2.78;;;;;;;26.45;41.44;101882.78;4198520;28;20036;-72
2022/06/21 02:17:23;;;;;;;3.60;3.10;;;;;;;26.52;41.24;101894.47;4198735;28;20048;-72
2022/06/21 02:19:33;;;;;;;2.88;2.58;;;;;;;26.54;41.14;101899.81;4198070;28;20032;-71
2022/06/21 02:21:41;;;;;;;3.50;3.05;;;;;;;26.54;41.41;101902.63;4198169;28;20110;-71
2022/06/21 02:23:51;;;;;;;3.25;2.78;;;;;;;26.54;41.37;101897.00;4198635;28;20045;-71
2022/06/21 02:25:55;;;;;;;3.08;2.67;;;;;;;26.53;41.20;101887.75;4198567;28;20114;-73
2022/06/21 02:28:02;;;;;;;2.90;2.60;;;;;;;26.53;41.16;101890.56;4198793;28;20045;-72
2022/06/21 02:30:13;;;;;;;3.30;3.00;;;;;;;26.54;41.36;101891.38;4199131;28;20044;-72
2022/06/21 02:32:32;;;;;;;2.80;2.60;;;;;;;26.48;41.22;101875.72;4198803;28;20040;-71
2022/06/21 02:34:38;;;;;;;2.95;2.67;;;;;;;26.51;41.06;101880.75;4197909;28;20037;-71
2022/06/21 02:36:47;;;;;;;2.78;2.58;;;;;;;26.55;41.49;101881.81;4197829;28;20479;-72
2022/06/21 02:38:56;;;;;;;3.55;2.70;;;;;;;26.54;41.51;101886.59;4197985;28;20464;-72
2022/06/21 02:41:04;;;;;;;4.05;2.97;;;;;;;26.54;41.22;101880.16;4204051;28;20113;-72
2022/06/21 02:43:22;;;;;;;3.75;2.40;;;;;;;26.55;41.27;101887.44;4198283;28;20048;-71
2022/06/21 02:45:32;;;;;;;2.70;2.50;;;;;;;26.51;41.56;101880.75;4198375;28;20070;-71
2022/06/21 02:47:42;;;;;;;3.03;2.72;;;;;;;26.54;41.42;101892.22;4200669;28;20131;-71
2022/06/21 02:49:54;;;;;;;2.95;2.65;;;;;;;26.54;41.48;101891.38;4215305;28;20089;-71
2022/06/21 02:52:22;;;;;;;2.95;2.72;;;;;;;26.49;41.52;101877.41;4215012;28;20040;-71
2022/06/21 02:54:50;;;;;;;2.75;2.55;;;;;;;26.55;41.29;101893.88;4214712;28;20039;-71
2022/06/21 02:56:59;;;;;;;3.05;2.75;;;;;;;26.55;41.40;101893.06;4214707;28;20036;-71
2022/06/21 02:59:02;;;;;;;3.15;2.78;;;;;;;26.55;41.28;101893.06;4214006;28;20048;-72
2022/06/21 03:01:11;;;;;;;2.92;2.45;;;;;;;26.53;41.43;101889.72;4215254;28;20098;-71
2022/06/21 03:03:19;;;;;;;3.20;2.72;;;;;;;26.52;41.36;101897.28;4214654;28;20505;-71
2022/06/21 03:05:26;;;;;;;3.00;2.70;;;;;;;26.48;41.53;101892.56;4214562;28;20044;-72
2022/06/21 03:07:31;;;;;;;2.90;2.60;;;;;;;26.54;41.44;101911.03;4213926;28;20085;-71
2022/06/21 03:09:34;;;;;;;2.83;2.53;;;;;;;26.54;41.29;101913.84;4214160;28;20032;-72
2022/06/21 03:11:48;;;;;;;3.22;2.85;;;;;;;26.52;41.67;101919.72;4214254;28;20081;-72
2022/06/21 03:13:49;;;;;;;3.72;3.35;;;;;;;26.54;41.40;101911.03;4212740;28;20040;-72
2022/06/21 03:16:02;;;;;;;3.67;2.92;;;;;;;26.52;41.33;101908.50;4216006;28;20052;-73
2022/06/21 03:18:15;;;;;;;3.20;2.80;;;;;;;26.53;41.51;101913.00;4216808;28;20097;-73
2022/06/21 03:20:20;;;;;;;3.20;2.90;;;;;;;26.53;41.26;101907.41;4217758;28;20429;-73
2022/06/21 03:22:25;;;;;;;3.20;2.90;;;;;;;26.53;41.23;101913.00;4218105;28;20024;-72
2022/06/21 03:24:31;;;;;;;3.17;2.85;;;;;;;26.53;41.48;101912.19;4218171;28;20117;-74
2022/06/21 03:26:36;;;;;;;2.67;2.47;;;;;;;26.53;41.19;101912.19;4217632;28;20097;-74
2022/06/21 03:28:46;;;;;;;3.83;2.75;;;;;;;26.54;41.29;101919.47;4217159;28;20048;-74
2022/06/21 03:30:53;;;;;;;3.55;2.60;;;;;;;26.53;41.44;101913.00;4217940;28;20048;-73
2022/06/21 03:32:56;;;;;;;3.03;2.72;;;;;;;26.53;41.29;101907.41;4217730;28;20468;-73
2022/06/21 03:34:57;;;;;;;3.00;2.70;;;;;;;26.52;41.26;101914.13;4217794;28;20089;-72
2022/06/21 03:37:00;;;;;;;2.78;2.58;;;;;;;26.52;41.45;101910.47;4218051;28;20040;-73
2022/06/21 03:39:11;;;;;;;3.33;2.80;;;;;;;26.51;41.49;101908.81;4217790;28;20040;-73
2022/06/21 03:43:54;;;;;;;2.85;2.58;;;;;;;26.52;41.33;101910.47;4211325;28;20040;-72
2022/06/21 03:45:59;;;;;;;3.83;2.70;;;;;;;26.52;41.15;101899.25;4217385;28;20040;-72
2022/06/21 03:48:12;;;;;;;2.88;2.58;;;;;;;26.51;41.46;101898.41;4217181;28;20544;-72
2022/06/21 03:50:26;;;;;;;3.13;2.83;;;;;;;26.52;41.43;101907.66;4212652;28;20039;-72
2022/06/21 03:52:42;;;;;;;2.92;2.55;;;;;;;26.53;41.47;101895.34;4211629;28;20552;-72
2022/06/21 03:54:49;;;;;;;3.15;2.80;;;;;;;26.47;41.47;101897.34;4202577;28;20070;-72
2022/06/21 03:56:58;;;;;;;3.05;2.47;;;;;;;26.53;41.44;101900.94;4216667;28;20445;-71
2022/06/21 03:58:59;;;;;;;3.67;3.30;;;;;;;26.53;41.47;101906.56;4216822;28;20529;-73
2022/06/21 04:01:14;;;;;;;3.50;3.10;;;;;;;26.52;41.22;101908.50;4216838;28;20444;-72
2022/06/21 04:03:25;;;;;;;3.53;2.80;;;;;;;26.53;41.59;101906.56;4216873;28;20451;-72
2022/06/21 04:05:48;;;;;;;3.03;2.72;;;;;;;26.53;41.19;101900.94;4216851;28;20032;-70
2022/06/21 04:07:59;;;;;;;3.15;2.80;;;;;;;26.53;41.26;101896.16;4216159;28;20116;-71
2022/06/21 04:10:08;;;;;;;5.13;2.72;;;;;;;26.53;40.73;101895.34;4216820;28;20048;-70
2022/06/21 04:12:30;;;;;;;4.45;3.20;;;;;;;26.52;40.60;101896.44;4200472;28;20446;-71
2022/06/21 04:14:50;;;;;;;5.97;4.28;;;;;;;26.51;40.43;101906.84;4215493;28;20101;-70
2022/06/21 04:17:12;;;;;;;6.10;4.20;;;;;;;26.51;40.45;101911.63;4216937;28;20040;-71
2022/06/21 04:19:35;;;;;;;8.10;4.35;;;;;;;26.50;39.89;101913.59;4214478;28;20097;-71
2022/06/21 04:21:50;;;;;;;4.93;4.22;;;;;;;26.49;39.34;101919.50;4203373;28;20052;-71
2022/06/21 04:23:51;;;;;;;5.00;4.25;;;;;;;26.49;39.04;101911.09;4199885;28;20048;-71
2022/06/21 04:26:03;;;;;;;4.72;3.85;;;;;;;26.48;39.10;101898.16;4205994;28;20032;-71
2022/06/21 04:28:07;;;;;;;4.80;4.30;;;;;;;26.47;39.34;101899.31;4207045;28;20089;-70
2022/06/21 04:30:25;;;;;;;6.38;4.25;;;;;;;26.45;39.12;101904.38;4215992;28;20028;-71
2022/06/21 04:32:33;;;;;;;5.85;4.20;;;;;;;26.45;38.88;101893.16;4215804;28;20086;-71
2022/06/21 04:34:48;;;;;;;4.93;4.40;;;;;;;26.43;38.96;101901.84;4215472;28;20541;-71
2022/06/21 04:36:58;;;;;;;4.55;4.00;;;;;;;26.44;39.14;101902.72;4216444;28;20106;-72
2022/06/21 04:39:17;;;;;;;5.22;4.60;;;;;;;26.43;38.91;101912.22;4215521;28;20429;-71
2022/06/21 04:42:11;;;;;;;5.60;4.82;;;;;;;26.40;38.68;101901.59;4215029;28;20485;-71
2022/06/21 04:44:44;;;;;;;5.40;4.20;;;;;;;26.40;38.57;101902.44;4183822;28;20552;-71
2022/06/21 04:47:05;;;;;;;5.57;4.63;;;;;;;26.42;38.17;101905.78;4198308;28;20040;-71
2022/06/21 04:49:25;;;;;;;8.48;4.43;;;;;;;26.41;38.27;101904.09;4215342;28;20040;-71
2022/06/21 04:51:44;;;;;;;4.97;4.15;;;;;;;26.42;38.98;101910.56;4215779;28;20097;-71
2022/06/21 04:54:02;;;;;;;8.38;4.40;;;;;;;26.42;39.35;101913.34;4206536;28;20052;-67
2022/06/21 04:56:16;;;;;;;8.80;4.32;;;;;;;26.33;38.90;101899.97;4206906;28;20093;-73
2022/06/21 04:58:18;;;;;;;7.33;4.83;;;;;;;26.40;38.56;101910.84;4215103;28;20040;-77
2022/06/21 05:00:22;;;;;;;7.18;3.92;;;;;;;26.36;38.32;101898.53;4208340;28;20106;-77
2022/06/21 05:02:30;;;;;;;6.05;4.57;;;;;;;26.38;38.95;101904.69;4197047;28;20036;-75
2022/06/21 05:04:35;;;;;;;10.07;4.57;;;;;;;26.38;38.66;101903.84;4213218;28;20111;-76
2022/06/21 05:06:37;;;;;;;;;;;;;;;26.35;38.96;101900.53;4216570;28;20036;-76
2022/06/21 05:08:42;;;;;;;14.93;4.88;;;;;;;26.39;38.46;101902.72;4215273;28;20379;-77
2022/06/21 05:10:46;;;;;;;6.68;4.72;;;;;;;26.40;38.37;101907.22;4215900;28;20097;-76
2022/06/21 05:12:52;;;;;;;;;;;;;;;26.39;38.57;101905.53;4214170;28;20413;-76
2022/06/21 05:14:59;;;;;;;;;;;;;;;26.41;38.38;101906.06;4199220;28;19916;-75
2022/06/21 05:17:01;;;;;;;13.00;5.03;;;;;;;26.43;37.92;101907.47;4198950;28;20337;-75
2022/06/21 05:19:28;;;;;;;12.63;5.05;;;;;;;26.41;38.09;101914.50;4198587;28;20369;-74
2022/06/21 05:21:42;;;;;;;6.78;4.15;;;;;;;26.40;38.01;101924.06;4213029;28;20036;-75
2022/06/21 05:23:44;;;;;;;10.35;4.90;;;;;;;26.36;37.95;101919.03;4215442;28;20044;-77
2022/06/21 05:25:47;;;;;;;7.93;4.88;;;;;;;26.29;37.91;101898.88;4215298;28;20501;-77
2022/06/21 05:28:04;;;;;;;8.40;5.05;;;;;;;26.29;37.99;101887.66;4215357;28;20093;-78
2022/06/21 05:30:33;;;;;;;8.32;4.70;;;;;;;26.26;38.09;101867.78;4215642;28;20044;-77
2022/06/21 05:32:44;;;;;;;7.13;4.60;;;;;;;26.13;37.87;101835.63;4215261;28;20413;-76
2022/06/21 05:34:53;;;;;;;9.65;4.80;;;;;;;26.32;38.17;101870.22;4215122;28;20032;-76
2022/06/21 05:37:12;;;;;;;8.38;4.53;;;;;;;26.32;38.36;101866.59;4215068;28;20031;-76
2022/06/21 05:39:21;;;;;;;7.53;4.97;;;;;;;26.33;38.24;101869.09;4198362;28;20041;-76
2022/06/21 05:41:30;;;;;;;8.90;4.78;;;;;;;26.33;37.99;101873.88;4213485;28;20039;-77
2022/06/21 05:43:46;;;;;;;6.45;5.18;;;;;;;26.31;38.28;101879.78;4215490;28;20035;-76
2022/06/21 05:45:54;;;;;;;7.03;4.63;;;;;;;26.31;37.77;101882.59;4215017;28;20036;-77
2022/06/21 05:47:59;;;;;;;6.93;4.82;;;;;;;26.31;38.27;101882.59;4214782;28;20040;-77
2022/06/21 05:50:07;;;;;;;7.70;5.00;;;;;;;26.30;37.95;101880.09;4215361;28;20036;-75
2022/06/21 05:52:17;;;;;;;7.65;4.47;;;;;;;26.28;38.27;101879.53;4215383;28;20036;-76
2022/06/21 05:54:23;;;;;;;6.65;4.60;;;;;;;26.24;38.29;101870.88;4214860;28;20074;-76
2022/06/21 05:56:26;;;;;;;8.60;4.68;;;;;;;26.31;37.88;101876.97;4214260;28;20112;-76
2022/06/21 05:58:37;;;;;;;6.57;4.65;;;;;;;26.27;38.15;101880.69;4214457;28;20097;-76
2022/06/21 06:01:03;;;;;;;6.32;4.47;;;;;;;26.30;37.98;101878.13;4214749;28;20498;-78
2022/06/21 06:03:15;;;;;;;8.55;4.72;;;;;;;26.29;37.96;101867.16;4215122;28;20036;-77
2022/06/21 06:05:25;;;;;;;6.25;4.50;;;;;;;26.30;38.20;101866.06;4215235;28;20036;-77
2022/06/21 06:07:53;;;;;;;5.65;4.22;;;;;;;26.28;37.93;101877.56;4214710;28;20036;-78
2022/06/21 06:09:58;;;;;;;7.72;4.85;;;;;;;26.31;38.14;101870.53;4213308;28;20061;-78
2022/06/21 06:12:04;;;;;;;8.82;4.70;;;;;;;26.30;38.27;101871.69;4215061;28;20040;-78
2022/06/21 06:14:06;;;;;;;8.30;4.82;;;;;;;26.30;37.98;101878.13;4215491;28;20086;-76
2022/06/21 06:16:15;;;;;;;5.07;4.57;;;;;;;26.28;38.23;101877.56;4213678;28;20044;-76
2022/06/21 06:18:43;;;;;;;6.60;4.78;;;;;;;26.26;38.16;101877.03;4214371;28;20040;-76
2022/06/21 06:20:48;;;;;;;7.05;4.90;;;;;;;26.29;38.08;101879.22;4214370;28;20368;-76
2022/06/21 06:23:05;;;;;;;8.45;4.65;;;;;;;26.29;38.16;101879.22;4213167;28;20036;-77
2022/06/21 06:25:22;;;;;;;7.95;4.55;;;;;;;26.28;38.49;101877.56;4201501;28;20101;-76
2022/06/21 06:27:39;;;;;;;7.00;4.63;;;;;;;26.21;37.92;101860.25;4203908;28;20039;-77
2022/06/21 06:29:44;;;;;;;9.15;5.22;;;;;;;26.28;38.27;101876.72;4214973;28;20101;-76
2022/06/21 06:31:56;;;;;;;6.40;4.10;;;;;;;26.28;37.89;101862.69;4214642;28;20036;-76
2022/06/21 06:34:19;;;;;;;6.55;4.38;;;;;;;26.24;38.54;101854.03;4213813;28;20043;-77
2022/06/21 06:36:26;;;;;;;5.90;4.85;;;;;;;26.26;38.21;101850.94;4212756;28;20044;-76
2022/06/21 06:38:28;;;;;;;7.07;5.38;;;;;;;26.23;37.90;101845.91;4215442;28;20031;-75
2022/06/21 06:40:36;;;;;;;4.90;4.38;;;;;;;26.26;38.06;101851.78;4214831;28;20098;-74
2022/06/21 06:42:39;;;;;;;6.63;4.53;;;;;;;26.26;37.89;101848.97;4213739;28;20036;-75
2022/06/21 06:44:53;;;;;;;7.13;5.05;;;;;;;26.26;38.04;101848.97;4214213;28;20085;-75
2022/06/21 06:46:58;;;;;;;5.72;4.60;;;;;;;26.19;38.19;101834.44;4214955;28;20094;-75
2022/06/21 06:49:15;;;;;;;6.10;4.78;;;;;;;26.25;37.86;101846.44;4214739;28;20061;-75
2022/06/21 06:51:19;;;;;;;6.25;4.90;;;;;;;26.27;38.11;101847.00;4216027;28;20056;-75
2022/06/21 06:53:29;;;;;;;5.77;4.93;;;;;;;26.26;38.14;101839.72;4217162;28;20036;-75
2022/06/21 06:55:38;;;;;;;5.32;4.57;;;;;;;26.25;37.93;101844.50;4216869;28;20065;-76
2022/06/21 06:57:53;;;;;;;6.68;4.70;;;;;;;26.23;38.19;101835.53;4216440;28;20089;-77
2022/06/21 06:59:59;;;;;;;5.37;4.50;;;;;;;26.27;38.23;101842.22;4218226;28;20105;-76
2022/06/21 07:02:29;;;;;;;5.35;4.68;;;;;;;26.16;38.12;101817.38;4218465;28;20090;-77
2022/06/21 07:04:37;;;;;;;7.13;5.35;;;;;;;26.24;37.89;101827.94;4195968;28;20048;-76
2022/06/21 07:06:48;;;;;;;6.28;5.32;;;;;;;26.26;38.03;101837.75;4218253;28;20040;-76
2022/06/21 07:09:03;;;;;;;6.15;4.63;;;;;;;26.25;38.33;101832.41;4216274;28;20548;-77
2022/06/21 07:11:21;;;;;;;5.53;5.00;;;;;;;26.19;38.06;101823.22;4217391;28;20475;-74
2022/06/21 07:13:26;;;;;;;6.03;4.65;;;;;;;26.27;38.08;101833.81;4217424;28;20027;-75
2022/06/21 07:15:40;;;;;;;6.07;4.68;;;;;;;26.25;38.22;101838.03;4218890;28;20116;-75
2022/06/21 07:17:50;;;;;;;7.10;5.03;;;;;;;26.13;38.37;101813.19;4210071;28;20081;-74
2022/06/21 07:19:56;;;;;;;8.27;4.88;;;;;;;26.19;38.08;101823.22;4218821;28;20685;-76
2022/06/21 07:21:57;;;;;;;8.32;4.72;;;;;;;26.24;38.07;101834.38;4218095;28;20044;-78
2022/06/21 07:23:59;;;;;;;5.55;4.80;;;;;;;26.25;38.42;101838.91;4218861;28;20044;-78
2022/06/21 07:26:10;;;;;;;6.50;4.60;;;;;;;26.23;38.16;101835.53;4219009;28;20082;-82
2022/06/21 07:28:31;;;;;;;6.68;4.63;;;;;;;26.23;38.05;101835.53;4216793;28;20460;-77
2022/06/21 07:30:40;;;;;;;6.43;5.45;;;;;;;26.24;38.40;101841.97;4215681;28;20036;-81
2022/06/21 07:32:54;;;;;;;5.18;4.68;;;;;;;26.20;38.14;101830.50;4215525;28;20036;-78
2022/06/21 07:35:38;;;;;;;7.00;5.10;;;;;;;26.17;38.51;101830.28;4217982;28;20040;-76
2022/06/21 07:37:41;;;;;;;6.68;4.95;;;;;;;26.25;37.96;101835.22;4215938;28;20105;-77
2022/06/21 07:39:52;;;;;;;8.63;4.85;;;;;;;26.26;38.32;101834.13;4217857;28;20086;-78
2022/06/21 07:42:31;;;;;;;10.10;5.07;;;;;;;26.13;38.25;101824.41;4217617;28;20090;-79
2022/06/21 07:44:45;;;;;;;9.57;4.88;;;;;;;26.23;38.25;101835.53;4214243;28;20093;-80
2022/06/21 07:46:52;;;;;;;7.10;4.78;;;;;;;26.24;38.84;101842.81;4218827;28;20044;-81
2022/06/21 07:49:10;;;;;;;8.55;5.20;;;;;;;26.25;38.80;101846.44;4216399;28;20085;-80
2022/06/21 07:51:17;;;;;;;13.30;5.22;;;;;;;26.24;38.50;101837.19;4218877;28;20536;-82
2022/06/21 07:53:46;;;;;;;6.75;5.13;;;;;;;26.21;38.96;101835.00;4216237;28;20028;-84
2022/06/21 07:56:16;;;;;;;8.52;4.88;;;;;;;26.21;39.08;101837.81;4211828;28;20097;-83
2022/06/21 07:58:23;;;;;;;6.53;4.63;;;;;;;26.22;38.81;101844.25;4205381;28;20044;-83
2022/06/21 08:06:40;;;;;;;10.80;4.97;;;;;;;26.14;38.79;101842.91;4201424;28;20033;-83
2022/06/21 08:07:58;;;;;;;7.82;4.68;;;;;;;26.23;39.18;101869.19;4201662;28;20093;-83
2022/06/21 08:10:16;;;;;;;10.73;4.47;;;;;;;26.21;38.88;101865.03;4200580;28;20041;-83
2022/06/21 08:12:19;;;;;;;6.32;4.50;;;;;;;26.21;39.26;101865.03;4200889;28;20102;-83
2022/06/21 08:14:24;;;;;;;8.52;4.50;;;;;;;26.23;39.24;101869.19;4201471;28;20094;-83
2022/06/21 08:16:34;;;;;;;5.45;4.43;;;;;;;26.20;39.34;101869.78;4201752;28;20426;-83
2022/06/21 08:19:05;;;;;;;10.63;4.97;;;;;;;26.19;39.13;101879.34;4199778;28;20117;-83
2022/06/21 08:21:12;;;;;;;8.70;5.03;;;;;;;26.22;39.02;101869.50;4201344;28;20044;-84
2022/06/21 08:23:19;;;;;;;6.30;4.53;;;;;;;26.22;39.53;101867.53;4202116;28;20090;-83
2022/06/21 08:25:43;;;;;;;7.25;4.75;;;;;;;26.20;39.21;101857.72;4200698;28;20048;-83
2022/06/21 08:28:00;;;;;;;5.55;4.93;;;;;;;26.21;39.50;101860.25;4200434;28;20040;-83
2022/06/21 08:30:15;;;;;;;8.38;4.57;;;;;;;26.13;39.24;101846.84;4200172;28;20113;-83
2022/06/21 08:32:33;;;;;;;9.18;4.93;;;;;;;26.18;39.43;101869.25;4200340;28;20044;-83
2022/06/21 08:34:42;;;;;;;5.90;4.38;;;;;;;26.22;39.48;101878.75;4200361;28;20509;-83
2022/06/21 08:36:56;;;;;;;5.55;4.60;;;;;;;26.22;39.43;101889.97;4199728;28;20102;-83
2022/06/21 08:39:04;;;;;;;6.13;4.80;;;;;;;26.17;39.37;101892.84;4199725;28;20461;-83
2022/06/21 08:44:15;;;;;;;5.35;4.10;;;;;;;26.21;39.54;101890.28;4200087;28;20087;-83
2022/06/21 08:46:33;;;;;;;7.85;4.80;;;;;;;26.22;39.48;101884.38;4199513;28;20487;-83
2022/06/21 08:48:46;;;;;;;6.30;4.82;;;;;;;26.22;39.63;101889.16;4199046;28;20086;-83
2022/06/21 08:51:17;;;;;;;5.78;4.75;;;;;;;26.20;39.44;101889.41;4199738;28;20044;-83
2022/06/21 08:53:36;;;;;;;6.47;4.82;;;;;;;25.05;39.51;101717.06;4200096;28;20485;-85
2022/06/21 08:55:56;;;;;;;5.18;4.32;;;;;;;26.23;39.46;101888.00;4200305;28;20036;-83
2022/06/21 08:58:17;;;;;;;6.13;4.80;;;;;;;26.22;39.41;101901.19;4199738;28;20097;-83
2022/06/21 09:00:28;;;;;;;6.53;4.93;;;;;;;26.23;39.82;101904.84;4200093;28;20537;-83
2022/06/21 09:02:51;;;;;;;5.82;4.10;;;;;;;26.23;39.53;101907.66;4200007;28;20423;-83
2022/06/21 09:05:13;;;;;;;5.60;4.43;;;;;;;26.21;39.58;101904.31;4200011;28;20037;-83
2022/06/21 09:07:42;;;;;;;5.93;4.65;;;;;;;26.21;39.69;101919.16;4200054;28;20106;-83
2022/06/21 09:10:14;;;;;;;6.65;4.55;;;;;;;26.22;39.72;101912.41;4199834;28;20365;-82
2022/06/21 09:12:50;;;;;;;6.65;4.57;;;;;;;26.20;39.67;101919.44;4215035;28;20089;-83
2022/06/21 09:15:00;;;;;;;;;;;;;;;26.21;39.66;101923.94;4217497;28;20043;-83
2022/06/21 09:17:13;;;;;;;5.32;4.28;;;;;;;26.26;39.77;101921.94;4217166;28;19969;-84
2022/06/21 09:19:23;;;;;;;4.65;4.00;;;;;;;26.25;39.51;101928.69;4216530;28;20121;-84
2022/06/21 09:21:31;;;;;;;4.75;4.00;;;;;;;26.24;39.57;101928.94;4213556;28;20089;-83
2022/06/21 09:23:53;;;;;;;6.55;4.68;;;;;;;26.20;39.81;101931.50;4217895;28;20483;-84
2022/06/21 09:26:15;;;;;;;6.35;4.25;;;;;;;26.22;39.95;101926.44;4216398;28;20421;-83
2022/06/21 09:28:32;;;;;;;6.68;4.95;;;;;;;26.20;39.96;101919.44;4198802;28;20102;-83
2022/06/21 09:30:45;;;;;;;6.80;5.05;;;;;;;26.21;39.71;101923.94;4200380;28;20082;-84
2022/06/21 09:33:24;;;;;;;5.68;4.28;;;;;;;26.17;39.58;101920.88;4199902;28;20041;-83
2022/06/21 09:35:59;;;;;;;6.38;4.70;;;;;;;26.19;39.70;101929.00;4198886;28;20479;-83
2022/06/21 09:38:15;;;;;;;5.03;4.30;;;;;;;26.22;40.01;101934.88;4199425;28;20434;-83
2022/06/21 09:40:45;;;;;;;6.30;4.22;;;;;;;26.22;39.68;101942.44;4198593;28;20091;-84
2022/06/21 09:42:52;;;;;;;6.00;4.60;;;;;;;26.23;39.95;101944.13;4198160;28;20044;-84
2022/06/21 09:45:54;;;;;;;4.40;3.97;;;;;;;26.20;40.04;101945.53;4198925;28;20036;-83
2022/06/21 09:48:17;;;;;;;5.28;4.43;;;;;;;26.22;40.00;101929.25;4189523;28;20037;-82
2022/06/21 09:50:49;;;;;;;5.85;4.25;;;;;;;26.10;39.89;101904.38;4198901;28;20558;-83
2022/06/21 09:53:17;;;;;;;6.25;4.47;;;;;;;26.21;39.63;101927.59;4198916;28;20083;-83
2022/06/21 09:55:21;;;;;;;5.70;4.20;;;;;;;26.23;39.76;101922.50;4199415;28;20052;-83
2022/06/21 09:58:19;;;;;;;6.87;4.47;;;;;;;26.18;39.99;101930.97;4200203;28;20044;-84
2022/06/21 10:00:31;;;;;;;4.68;4.13;;;;;;;26.23;39.87;101944.94;4168778;28;20049;-83
2022/06/21 10:02:58;;;;;;;4.25;3.80;;;;;;;26.23;39.64;101946.91;4168278;28;20046;-83
2022/06/21 10:05:17;;;;;;;4.93;4.10;;;;;;;26.17;39.96;101948.94;4181471;28;20098;-83
2022/06/21 10:08:12;;;;;;;6.60;4.35;;;;;;;26.20;39.83;101964.34;4203183;28;20048;-83
2022/06/21 10:10:19;;;;;;;4.80;4.30;;;;;;;26.22;40.13;101962.91;4183838;28;20041;-83
2022/06/21 10:12:30;;;;;;;6.88;4.00;;;;;;;26.22;40.11;101962.09;4195109;28;20036;-84
2022/06/21 10:15:10;;;;;;;4.28;3.88;;;;;;;26.21;39.95;101971.66;4199534;28;20078;-84
2022/06/21 10:17:37;;;;;;;6.93;4.80;;;;;;;26.11;39.76;101955.69;4197550;28;20033;-83
2022/06/21 10:20:04;;;;;;;6.10;4.28;;;;;;;26.23;40.02;101969.38;4199601;28;20040;-84
2022/06/21 10:22:18;;;;;;;4.90;4.00;;;;;;;26.22;39.96;101968.53;4198935;28;20044;-85
2022/06/21 10:24:52;;;;;;;4.50;4.07;;;;;;;26.21;39.75;101966.88;4198935;28;20041;-83
2022/06/21 10:27:10;;;;;;;4.75;3.92;;;;;;;26.17;39.93;101954.56;4199453;28;20442;-84
2022/06/21 10:29:20;;;;;;;5.25;3.97;;;;;;;26.24;40.15;101966.25;4213066;28;20093;-83
2022/06/21 10:31:30;;;;;;;5.00;4.25;;;;;;;26.24;40.21;101977.47;4216113;28;20098;-81